createdAt,value
2022-09-09T00:02:39.508Z,97831.34
2022-09-09T00:05:41.208Z,97829.78
2022-09-09T00:08:48.565Z,97830.91
2022-09-09T00:11:54.414Z,97834.38
2022-09-09T00:14:56.558Z,97831.22
2022-09-09T00:18:16.531Z,97835.53
2022-09-09T00:21:18.469Z,97833.16
2022-09-09T00:24:19.981Z,97840.53
2022-09-09T00:27:40.292Z,97843.22
2022-09-09T00:30:42.630Z,97842.59
2022-09-09T00:33:44.347Z,97841.91
2022-09-09T00:36:45.941Z,97841.00
2022-09-09T00:39:53.062Z,97853.44
2022-09-09T00:43:14.880Z,97844.34
2022-09-09T00:46:19.477Z,97841.00
2022-09-09T00:49:24.423Z,97840.69
2022-09-09T00:52:31.565Z,97839.09
2022-09-09T00:55:33.565Z,97846.34
2022-09-09T00:58:35.203Z,97847.28
2022-09-09T01:01:36.996Z,97847.09
2022-09-09T01:04:38.771Z,97846.00
2022-09-09T01:07:40.825Z,97847.09
2022-09-09T01:10:47.196Z,97847.56
2022-09-09T01:13:50.926Z,97847.09
2022-09-09T01:16:54.725Z,97847.75
2022-09-09T01:19:59.457Z,97845.72
2022-09-09T01:23:36.620Z,97847.13
2022-09-09T01:26:49.305Z,97848.56
2022-09-09T01:30:00.656Z,97842.75
2022-09-09T01:33:04.305Z,97843.06
2022-09-09T01:36:07.601Z,97838.50
2022-09-09T01:39:15.994Z,97835.81
2022-09-09T01:42:20.005Z,97838.97
2022-09-09T01:45:21.686Z,97844.16
2022-09-09T01:48:23.950Z,97842.59
2022-09-09T01:51:36.121Z,97841.91
2022-09-09T01:54:41.102Z,97843.63
2022-09-09T01:58:10.105Z,97837.31
2022-09-09T02:01:32.599Z,97830.84
2022-09-09T02:04:35.420Z,97833.66
2022-09-09T02:07:42.073Z,97836.34
2022-09-09T02:11:02.745Z,97833.34
2022-09-09T02:14:17.938Z,97832.69
2022-09-09T02:17:27.737Z,97832.69
2022-09-09T02:20:41.617Z,97837.56
2022-09-09T02:23:43.973Z,97825.78
2022-09-09T02:26:48.770Z,97834.91
2022-09-09T02:29:52.910Z,97831.78
2022-09-09T02:33:04.904Z,97833.53
2022-09-09T02:36:25.427Z,97833.84
2022-09-09T02:39:27.132Z,97839.53
2022-09-09T02:42:28.686Z,97831.50
2022-09-09T02:45:52.706Z,97833.06
2022-09-09T02:49:16.838Z,97831.97
2022-09-09T02:52:23.498Z,97837.63
2022-09-09T02:55:28.696Z,97833.53
2022-09-09T02:58:32.637Z,97828.63
2022-09-09T03:01:41.090Z,97832.75
2022-09-09T03:04:45.496Z,97834.31
2022-09-09T03:07:48.570Z,97845.16
2022-09-09T03:10:53.980Z,97837.00
2022-09-09T03:13:57.091Z,97834.75
2022-09-09T03:17:02.013Z,97822.34
2022-09-09T03:20:07.125Z,97834.66
2022-09-09T03:23:12.380Z,97828.63
2022-09-09T03:26:17.087Z,97822.78
2022-09-09T03:29:21.390Z,97828.47
2022-09-09T03:32:23.586Z,97824.53
2022-09-09T03:35:26.212Z,97833.66
2022-09-09T03:38:27.756Z,97830.22
2022-09-09T03:41:30.062Z,97824.38
2022-09-09T03:44:32.597Z,97828.31
2022-09-09T03:47:34.205Z,97831.31
2022-09-09T03:50:40.467Z,97831.00
2022-09-09T03:53:42.325Z,97831.00
2022-09-09T03:56:43.920Z,97827.97
2022-09-09T03:59:48.017Z,97841.84
2022-09-09T04:02:50.989Z,97833.28
2022-09-09T04:05:53.786Z,97835.19
2022-09-09T04:08:56.434Z,97834.25
2022-09-09T04:12:00.910Z,97837.91
2022-09-09T04:15:03.342Z,97840.25
2022-09-09T04:18:06.645Z,97835.38
2022-09-09T04:21:09.380Z,97837.28
2022-09-09T04:24:11.093Z,97840.41
2022-09-09T04:27:13.221Z,97843.22
2022-09-09T04:30:15.750Z,97846.22
2022-09-09T04:33:18.447Z,97844.97
2022-09-09T04:36:20.750Z,97841.84
2022-09-09T04:39:24.050Z,97859.34
2022-09-09T04:42:29.353Z,97847.38
2022-09-09T04:45:31.449Z,97837.00
2022-09-09T04:48:33.312Z,97845.34
2022-09-09T04:51:36.270Z,97842.34
2022-09-09T04:54:38.174Z,97845.66
2022-09-09T04:57:40.854Z,97841.41
2022-09-09T05:00:43.428Z,97849.78
2022-09-09T05:03:48.166Z,97867.41
2022-09-09T05:06:53.595Z,97848.34
2022-09-09T05:09:55.385Z,97857.00
2022-09-09T05:12:57.205Z,97850.97
2022-09-09T05:16:01.853Z,97848.16
2022-09-09T05:19:04.332Z,97852.72
2022-09-09T05:22:21.475Z,97859.53
2022-09-09T05:25:27.045Z,97854.16
2022-09-09T05:28:30.340Z,97852.28
2022-09-09T05:31:32.752Z,97854.63
2022-09-09T05:34:38.675Z,97859.19
2022-09-09T05:37:40.877Z,97851.78
2022-09-09T05:40:48.641Z,97858.25
2022-09-09T05:43:50.566Z,97853.41
2022-09-09T05:46:53.248Z,97859.28
2022-09-09T05:49:55.681Z,97862.13
2022-09-09T05:52:57.289Z,97877.13
2022-09-09T05:56:04.339Z,97855.41
2022-09-09T05:59:08.580Z,97867.38
2022-09-09T06:02:10.524Z,97869.41
2022-09-09T06:05:13.798Z,97866.22
2022-09-09T06:08:16.046Z,97870.63
2022-09-09T06:11:19.067Z,97875.47
2022-09-09T06:14:21.513Z,97868.38
2022-09-09T06:17:24.716Z,97873.69
2022-09-09T06:20:27.321Z,97874.41
2022-09-09T06:23:29.517Z,97880.50
2022-09-09T06:26:31.972Z,97883.00
2022-09-09T06:29:35.324Z,97890.19
2022-09-09T06:32:38.846Z,97895.84
2022-09-09T06:35:40.493Z,97893.09
2022-09-09T06:38:43.318Z,97897.16
2022-09-09T06:41:48.346Z,97900.56
2022-09-09T06:45:28.417Z,97901.97
2022-09-09T06:48:33.862Z,97906.81
2022-09-09T06:51:36.840Z,97910.00
2022-09-09T06:54:39.230Z,97904.81
2022-09-09T06:57:41.578Z,97912.25
2022-09-09T07:00:51.606Z,97910.53
2022-09-09T07:03:55.559Z,97905.31
2022-09-09T07:06:57.317Z,97914.41
2022-09-09T07:10:00.831Z,97904.34
2022-09-09T07:13:03.291Z,97912.44
2022-09-09T07:16:12.292Z,97908.84
2022-09-09T07:19:15.365Z,97905.88
2022-09-09T07:22:18.243Z,97910.09
2022-09-09T07:25:21.971Z,97911.69
2022-09-09T07:28:23.895Z,97913.69
2022-09-09T07:31:32.994Z,97915.94
2022-09-09T07:34:35.326Z,97924.78
2022-09-09T07:37:38.714Z,97921.81
2022-09-09T07:40:40.626Z,97923.81
2022-09-09T07:43:43.149Z,97921.47
2022-09-09T07:46:46.591Z,97916.19
2022-09-09T07:49:56.534Z,97923.53
2022-09-09T07:53:03.647Z,97925.13
2022-09-09T07:56:10.275Z,97922.13
2022-09-09T07:59:13.104Z,97926.94
2022-09-09T08:02:16.764Z,97928.81
2022-09-09T08:05:19.533Z,97938.13
2022-09-09T08:08:21.302Z,97943.16
2022-09-09T08:11:24.139Z,97946.31
2022-09-09T08:14:25.906Z,97950.03
2022-09-09T08:17:27.830Z,97948.66
2022-09-09T08:20:30.148Z,97949.84
2022-09-09T08:23:32.470Z,97950.28
2022-09-09T08:26:35.608Z,97948.63
2022-09-09T08:29:38.923Z,97951.19
2022-09-09T08:32:43.455Z,97951.97
2022-09-09T08:35:52.162Z,97963.31
2022-09-09T08:38:57.613Z,97968.66
2022-09-09T08:42:03.680Z,97960.91
2022-09-09T08:45:20.588Z,97966.84
2022-09-09T08:48:27.768Z,97970.66
2022-09-09T08:51:30.316Z,97974.16
2022-09-09T08:54:51.126Z,97975.56
2022-09-09T09:01:17.594Z,97986.63
2022-09-09T09:04:30.148Z,97980.81
2022-09-09T09:07:48.893Z,97990.75
2022-09-09T09:10:54.982Z,97976.91
2022-09-09T09:14:00.531Z,97986.47
2022-09-09T09:17:06.528Z,97984.41
2022-09-09T09:20:13.451Z,97994.03
2022-09-09T09:23:26.373Z,97992.03
2022-09-09T09:26:32.135Z,98002.31
2022-09-09T09:29:41.760Z,98010.03
2022-09-09T09:33:01.056Z,98003.06
2022-09-09T09:36:04.342Z,98006.69
2022-09-09T09:42:31.605Z,98004.53
2022-09-09T09:45:34.404Z,98005.72
2022-09-09T09:48:38.316Z,98011.31
2022-09-09T09:51:41.182Z,98009.38
2022-09-09T09:54:43.322Z,98003.88
2022-09-09T09:57:45.814Z,98005.66
2022-09-09T10:00:52.235Z,98006.78
2022-09-09T10:03:57.988Z,98013.66
2022-09-09T10:07:00.680Z,98012.84
2022-09-09T10:10:02.670Z,98020.78
2022-09-09T10:13:06.663Z,98034.59
2022-09-09T10:16:11.780Z,98027.53
2022-09-09T10:19:13.747Z,98026.66
2022-09-09T10:22:18.606Z,98027.19
2022-09-09T10:25:20.408Z,98030.16
2022-09-09T10:28:31.849Z,98026.00
2022-09-09T10:31:45.587Z,98037.53
2022-09-09T10:34:57.990Z,98031.28
2022-09-09T10:38:18.782Z,98034.38
2022-09-09T10:41:21.085Z,98031.47
2022-09-09T10:44:26.062Z,98041.25
2022-09-09T10:47:37.097Z,98041.50
2022-09-09T10:51:00.523Z,98035.22
2022-09-09T10:54:09.225Z,98032.91
2022-09-09T10:57:13.062Z,98044.25
2022-09-09T11:00:16.254Z,98047.88
2022-09-09T11:03:25.940Z,98060.53
2022-09-09T11:06:30.592Z,98045.56
2022-09-09T11:09:33.542Z,98063.72
2022-09-09T11:12:35.379Z,98072.63
2022-09-09T11:15:47.482Z,98072.50
2022-09-09T11:18:49.373Z,98072.63
2022-09-09T11:21:52.918Z,98075.88
2022-09-09T11:24:55.716Z,98073.50
2022-09-09T11:27:57.326Z,98078.44
2022-09-09T11:30:58.963Z,98070.25
2022-09-09T11:34:00.678Z,98069.81
2022-09-09T11:37:21.039Z,98079.69
2022-09-09T11:40:29.097Z,98093.13
2022-09-09T11:43:34.966Z,98090.47
2022-09-09T11:46:39.161Z,98105.50
2022-09-09T11:49:42.796Z,98102.00
2022-09-09T11:52:47.861Z,98109.88
2022-09-09T11:56:00.755Z,98109.50
2022-09-09T11:59:04.823Z,98112.75
2022-09-09T12:02:16.843Z,98117.31
2022-09-09T12:05:21.060Z,98116.66
2022-09-09T12:08:25.979Z,98118.25
2022-09-09T12:11:40.209Z,98112.06
2022-09-09T12:14:42.920Z,98113.88
2022-09-09T12:17:45.028Z,98118.88
2022-09-09T12:20:53.364Z,98119.50
2022-09-09T12:23:57.369Z,98119.22
2022-09-09T12:26:59.156Z,98118.91
2022-09-09T12:30:16.035Z,98121.25
2022-09-09T12:33:18.436Z,98116.81
2022-09-09T12:36:20.843Z,98120.16
2022-09-09T12:39:26.217Z,98119.63
2022-09-09T12:42:27.863Z,98122.88
2022-09-09T12:45:30.930Z,98128.72
2022-09-09T12:48:34.269Z,98130.53
2022-09-09T12:51:36.042Z,98136.66
2022-09-09T12:54:44.929Z,98139.50
2022-09-09T12:57:46.798Z,98139.50
2022-09-09T13:00:53.383Z,98152.44
2022-09-09T13:03:55.203Z,98162.22
2022-09-09T13:07:07.865Z,98163.16
2022-09-09T13:10:13.258Z,98163.00
2022-09-09T13:13:23.520Z,98175.47
2022-09-09T13:16:34.910Z,98172.47
2022-09-09T13:19:38.715Z,98180.31
2022-09-09T13:22:41.711Z,98177.44
2022-09-09T13:25:44.826Z,98175.38
2022-09-09T13:28:47.483Z,98186.22
2022-09-09T13:31:49.090Z,98189.13
2022-09-09T13:34:54.692Z,98195.06
2022-09-09T13:37:56.328Z,98193.31
2022-09-09T13:40:58.727Z,98197.06
2022-09-09T13:44:00.322Z,98203.22
2022-09-09T13:47:09.966Z,98204.09
2022-09-09T13:50:25.574Z,98208.38
2022-09-09T13:53:27.275Z,98203.50
2022-09-09T13:56:28.846Z,98207.09
2022-09-09T13:59:54.006Z,98204.22
2022-09-09T14:02:52.324Z,98219.00
2022-09-09T14:05:54.725Z,98219.25
2022-09-09T14:08:56.277Z,98233.75
2022-09-09T14:11:57.831Z,98227.16
2022-09-09T14:15:00.745Z,98236.28
2022-09-09T14:18:03.169Z,98237.19
2022-09-09T14:21:04.746Z,98237.28
2022-09-09T14:24:06.904Z,98231.34
2022-09-09T14:27:08.490Z,98230.31
2022-09-09T14:30:10.496Z,98234.16
2022-09-09T14:33:12.866Z,98235.06
2022-09-09T14:36:14.483Z,98230.13
2022-09-09T14:39:16.215Z,98229.34
2022-09-09T14:42:17.905Z,98234.59
2022-09-09T14:45:19.843Z,98235.00
2022-09-09T14:48:21.366Z,98236.13
2022-09-09T14:51:24.184Z,98237.44
2022-09-09T14:54:25.714Z,98245.63
2022-09-09T14:57:27.277Z,98235.00
2022-09-09T15:00:28.885Z,98235.00
2022-09-09T15:03:30.467Z,98236.59
2022-09-09T15:06:34.161Z,98246.81
2022-09-09T15:09:35.883Z,98243.09
2022-09-09T15:12:37.556Z,98238.13
2022-09-09T15:15:39.188Z,98242.75
2022-09-09T15:18:43.671Z,98251.09
2022-09-09T15:21:45.461Z,98248.66
2022-09-09T15:24:47.042Z,98246.09
2022-09-09T15:27:48.590Z,98258.91
2022-09-09T15:30:50.796Z,98267.13
2022-09-09T15:33:53.118Z,98255.72
2022-09-09T15:36:56.509Z,98260.09
2022-09-09T15:39:59.817Z,98260.22
2022-09-09T15:43:01.851Z,98259.69
2022-09-09T15:46:12.238Z,98269.56
2022-09-09T15:49:20.771Z,98271.09
2022-09-09T15:52:22.358Z,98275.56
2022-09-09T15:55:25.290Z,98278.25
2022-09-09T15:58:27.075Z,98279.78
2022-09-09T16:01:28.726Z,98282.88
2022-09-09T16:04:30.634Z,98286.00
2022-09-09T16:07:32.189Z,98283.16
2022-09-09T16:10:33.734Z,98298.34
2022-09-09T16:13:35.823Z,98292.72
2022-09-09T16:16:37.606Z,98293.91
2022-09-09T16:19:39.142Z,98286.91
2022-09-09T16:22:41.137Z,98286.47
2022-09-09T16:25:43.301Z,98280.72
2022-09-09T16:28:44.864Z,98288.34
2022-09-09T16:31:47.941Z,98292.59
2022-09-09T16:34:49.911Z,98304.13
2022-09-09T16:37:51.487Z,98296.47
2022-09-09T16:40:53.203Z,98311.38
2022-09-09T16:43:59.178Z,98308.56
2022-09-09T16:47:01.224Z,98319.09
2022-09-09T16:50:02.838Z,98319.91
2022-09-09T16:53:07.592Z,98316.66
2022-09-09T16:56:09.831Z,98316.38
2022-09-09T16:59:12.775Z,98329.53
2022-09-09T17:02:14.399Z,98336.03
2022-09-09T17:05:16.053Z,98340.06
2022-09-09T17:08:17.566Z,98340.72
2022-09-09T17:11:19.634Z,98347.66
2022-09-09T17:14:21.913Z,98348.13
2022-09-09T17:17:31.725Z,98332.53
2022-09-09T17:20:46.047Z,98342.63
2022-09-09T17:23:48.834Z,98346.75
2022-09-09T17:26:50.363Z,98358.41
2022-09-09T17:29:52.251Z,98360.16
2022-09-09T17:32:55.586Z,98366.31
2022-09-09T17:35:58.613Z,98362.34
2022-09-09T17:39:01.020Z,98371.66
2022-09-09T17:42:02.661Z,98369.94
2022-09-09T17:45:04.570Z,98375.13
2022-09-09T17:48:07.943Z,98381.88
2022-09-09T17:51:10.067Z,98379.22
2022-09-09T17:54:16.284Z,98387.41
2022-09-09T17:57:23.220Z,98389.63
2022-09-09T18:00:24.806Z,98392.78
2022-09-09T18:03:26.417Z,98389.47
2022-09-09T18:06:29.538Z,98381.59
2022-09-09T18:09:31.187Z,98393.09
2022-09-09T18:12:32.752Z,98399.72
2022-09-09T18:15:48.762Z,98400.03
2022-09-09T18:18:51.949Z,98400.53
2022-09-09T18:21:54.134Z,98405.22
2022-09-09T18:24:57.965Z,98412.31
2022-09-09T18:27:59.994Z,98417.22
2022-09-09T18:31:04.535Z,98411.69
2022-09-09T18:34:07.182Z,98422.41
2022-09-09T18:37:10.360Z,98422.41
2022-09-09T18:40:11.983Z,98430.31
2022-09-09T18:43:13.610Z,98435.06
2022-09-09T18:46:16.390Z,98436.00
2022-09-09T18:49:18.374Z,98438.69
2022-09-09T18:52:19.919Z,98440.56
2022-09-09T18:55:21.703Z,98443.88
2022-09-09T18:58:23.290Z,98443.25
2022-09-09T19:01:25.068Z,98449.69
2022-09-09T19:04:27.377Z,98451.13
2022-09-09T19:07:29.203Z,98465.47
2022-09-09T19:10:31.774Z,98460.91
2022-09-09T19:13:33.692Z,98467.22
2022-09-09T19:16:35.481Z,98468.31
2022-09-09T19:19:37.074Z,98471.47
2022-09-09T19:22:38.574Z,98466.59
2022-09-09T19:25:40.177Z,98471.47
2022-09-09T19:28:42.647Z,98479.66
2022-09-09T19:31:55.390Z,98484.03
2022-09-09T19:35:04.034Z,98481.22
2022-09-09T19:38:05.565Z,98484.34
2022-09-09T19:41:10.972Z,98484.66
2022-09-09T19:44:13.348Z,98491.88
2022-09-09T19:47:15.114Z,98496.13
2022-09-09T19:50:16.918Z,98500.53
2022-09-09T19:53:18.457Z,98507.63
2022-09-09T19:56:20.617Z,98499.13
2022-09-09T19:59:22.554Z,98501.16
2022-09-09T20:02:25.165Z,98507.63
2022-09-09T20:05:26.815Z,98507.34
2022-09-09T20:08:28.317Z,98510.00
2022-09-09T20:11:29.835Z,98517.22
2022-09-09T20:14:33.209Z,98509.19
2022-09-09T20:17:37.633Z,98511.72
2022-09-09T20:20:42.824Z,98519.91
2022-09-09T20:23:44.478Z,98526.22
2022-09-09T20:26:47.362Z,98522.47
2022-09-09T20:29:48.909Z,98518.38
2022-09-09T20:32:50.414Z,98525.28
2022-09-09T20:35:54.146Z,98527.31
2022-09-09T20:38:57.994Z,98530.78
2022-09-09T20:41:59.521Z,98539.13
2022-09-09T20:45:01.174Z,98541.31
2022-09-09T20:48:02.819Z,98539.88
2022-09-09T20:51:09.811Z,98539.72
2022-09-09T20:54:12.435Z,98535.91
2022-09-09T20:57:16.654Z,98538.59
2022-09-09T21:00:18.235Z,98547.59
2022-09-09T21:03:19.774Z,98551.84
2022-09-09T21:06:21.384Z,98555.16
2022-09-09T21:09:24.487Z,98561.00
2022-09-09T21:12:25.996Z,98567.47
2022-09-09T21:15:27.614Z,98550.41
2022-09-09T21:18:29.277Z,98553.25
2022-09-09T21:21:30.989Z,98538.69
2022-09-09T21:24:32.554Z,98547.66
2022-09-09T21:27:34.699Z,98552.84
2022-09-09T21:30:40.703Z,98553.75
2022-09-09T21:33:46.246Z,98542.72
2022-09-09T21:36:47.780Z,98555.84
2022-09-09T21:39:49.315Z,98553.75
2022-09-09T21:42:50.902Z,98554.69
2022-09-09T21:45:52.518Z,98555.47
2022-09-09T21:48:56.464Z,98565.06
2022-09-09T21:51:58.394Z,98562.06
2022-09-09T21:54:59.945Z,98565.84
2022-09-09T21:58:01.493Z,98573.09
2022-09-09T22:01:08.130Z,98571.72
2022-09-09T22:04:09.661Z,98580.53
2022-09-09T22:07:11.186Z,98581.31
2022-09-09T22:10:13.020Z,98577.34
2022-09-09T22:13:14.959Z,98581.63
2022-09-09T22:16:19.011Z,98578.97
2022-09-09T22:19:20.609Z,98592.81
2022-09-09T22:22:22.156Z,98590.19
2022-09-09T22:25:23.678Z,98597.75
2022-09-09T22:28:25.177Z,98593.97
2022-09-09T22:31:26.906Z,98593.38
2022-09-09T22:34:28.709Z,98596.34
2022-09-09T22:37:30.195Z,98600.13
2022-09-09T22:40:32.590Z,98594.94
2022-09-09T22:43:34.082Z,98605.66
2022-09-09T22:46:36.114Z,98613.38
2022-09-09T22:49:37.874Z,98606.94
2022-09-09T22:52:39.697Z,98615.88
2022-09-09T22:55:41.302Z,98620.75
2022-09-09T22:58:42.875Z,98616.00
2022-09-09T23:01:44.688Z,98621.53
2022-09-09T23:04:46.697Z,98619.97
2022-09-09T23:07:48.688Z,98620.09
2022-09-09T23:10:50.227Z,98628.41
2022-09-09T23:13:53.086Z,98628.91
2022-09-09T23:16:55.553Z,98631.88
2022-09-09T23:19:58.137Z,98619.13
2022-09-09T23:23:01.464Z,98626.06
2022-09-09T23:26:03.600Z,98625.56
2022-09-09T23:29:05.157Z,98638.16
2022-09-09T23:32:06.748Z,98635.19
2022-09-09T23:35:08.780Z,98636.16
2022-09-09T23:38:10.802Z,98635.84
2022-09-09T23:41:13.273Z,98639.31
2022-09-09T23:44:14.954Z,98649.44
2022-09-09T23:47:16.585Z,98651.59
2022-09-09T23:50:19.091Z,98645.28
2022-09-09T23:53:21.273Z,98652.09
2022-09-09T23:56:24.006Z,98652.91
2022-09-09T23:59:25.740Z,98652.09
